createdAt,value
2023-03-12T00:05:30.549Z,91628.50
2023-03-12T00:08:16.472Z,91638.97
2023-03-12T00:11:02.295Z,91636.34
2023-03-12T00:13:50.303Z,91641.38
2023-03-12T00:16:36.169Z,91647.47
2023-03-12T00:19:22.117Z,91647.31
2023-03-12T00:22:08.204Z,91649.50
2023-03-12T00:24:54.039Z,91639.78
2023-03-12T00:27:39.882Z,91647.56
2023-03-12T00:30:25.816Z,91646.09
2023-03-12T00:33:11.698Z,91658.34
2023-03-12T00:35:57.682Z,91669.34
2023-03-12T00:38:43.623Z,91660.44
2023-03-12T00:41:29.474Z,91652.53
2023-03-12T00:44:15.332Z,91665.84
2023-03-12T00:47:01.398Z,91661.03
2023-03-12T00:49:47.546Z,91670.72
2023-03-12T00:52:33.477Z,91667.41
2023-03-12T00:55:19.377Z,91670.41
2023-03-12T00:58:05.198Z,91682.09
2023-03-12T01:00:51.051Z,91677.50
2023-03-12T01:03:37.164Z,91684.81
2023-03-12T01:06:23.230Z,91682.78
2023-03-12T01:09:09.173Z,91684.09
2023-03-12T01:11:55.163Z,91690.16
2023-03-12T01:14:41.215Z,91681.66
2023-03-12T01:17:27.039Z,91697.34
2023-03-12T01:20:13.001Z,91692.63
2023-03-12T01:22:58.694Z,91693.19
2023-03-12T01:25:44.787Z,91705.88
2023-03-12T01:28:30.955Z,91697.69
2023-03-12T01:31:18.825Z,91700.22
2023-03-12T01:34:04.819Z,91709.81
2023-03-12T01:36:50.626Z,91700.88
2023-03-12T01:39:36.522Z,91704.19
2023-03-12T01:42:22.431Z,91707.69
2023-03-12T01:45:08.182Z,91714.72
2023-03-12T01:47:54.069Z,91707.28
2023-03-12T01:50:39.969Z,91708.25
2023-03-12T01:53:25.902Z,91702.19
2023-03-12T01:56:11.921Z,91697.44
2023-03-12T01:58:57.729Z,91701.91
2023-03-12T02:01:43.543Z,91681.16
2023-03-12T02:04:29.457Z,91680.91
2023-03-12T02:07:15.238Z,91684.09
2023-03-12T02:10:01.178Z,91675.59
2023-03-12T02:12:47.039Z,91673.09
2023-03-12T02:15:32.905Z,91683.38
2023-03-12T02:18:18.863Z,91675.28
2023-03-12T02:21:06.120Z,91678.84
2023-03-12T02:23:51.954Z,91673.91
2023-03-12T02:26:37.974Z,91674.41
2023-03-12T02:29:23.762Z,91678.56
2023-03-12T02:32:09.748Z,91681.28
2023-03-12T02:34:55.654Z,91671.09
2023-03-12T02:37:41.311Z,91654.22
2023-03-12T02:40:27.251Z,91664.38
2023-03-12T02:43:12.960Z,91667.91
2023-03-12T02:45:58.971Z,91670.75
2023-03-12T02:48:44.941Z,91676.00
2023-03-12T02:51:30.668Z,91664.50
2023-03-12T02:54:16.567Z,91667.56
2023-03-12T02:57:02.412Z,91675.88
2023-03-12T02:59:48.354Z,91681.50
2023-03-12T03:02:34.346Z,91674.81
2023-03-12T03:05:20.061Z,91668.00
2023-03-12T03:08:05.981Z,91670.47
2023-03-12T03:10:51.843Z,91658.34
2023-03-12T03:13:37.561Z,91663.78
2023-03-12T03:16:23.451Z,91664.16
2023-03-12T03:19:09.299Z,91665.34
2023-03-12T03:21:55.267Z,91660.47
2023-03-12T03:24:41.222Z,91664.31
2023-03-12T03:27:26.991Z,91663.09
2023-03-12T03:30:12.804Z,91666.31
2023-03-12T03:32:58.821Z,91666.34
2023-03-12T03:35:44.677Z,91664.34
2023-03-12T03:38:30.690Z,91658.50
2023-03-12T03:41:16.498Z,91643.97
2023-03-12T03:44:02.391Z,91641.81
2023-03-12T03:46:48.288Z,91641.44
2023-03-12T03:49:34.010Z,91644.06
2023-03-12T03:52:19.884Z,91652.09
2023-03-12T03:55:05.616Z,91655.13
2023-03-12T03:57:51.409Z,91654.25
2023-03-12T04:00:37.357Z,91660.34
2023-03-12T04:03:23.295Z,91672.47
2023-03-12T04:06:09.150Z,91682.72
2023-03-12T04:08:55.130Z,91702.00
2023-03-12T04:11:40.975Z,91701.13
2023-03-12T04:14:26.916Z,91707.16
2023-03-12T04:17:12.920Z,91705.09
2023-03-12T04:19:58.796Z,91711.94
2023-03-12T04:22:44.906Z,91721.53
2023-03-12T04:25:30.727Z,91719.19
2023-03-12T04:28:16.539Z,91715.88
2023-03-12T04:31:02.589Z,91723.69
2023-03-12T04:33:48.471Z,91726.75
2023-03-12T04:36:34.361Z,91730.06
2023-03-12T04:39:20.269Z,91724.31
2023-03-12T04:42:06.144Z,91735.78
2023-03-12T04:44:52.195Z,91730.34
2023-03-12T04:47:37.935Z,91731.22
2023-03-12T04:50:23.934Z,91733.03
2023-03-12T04:53:09.786Z,91733.06
2023-03-12T04:55:55.794Z,91734.00
2023-03-12T04:58:41.637Z,91733.06
2023-03-12T05:01:27.611Z,91739.69
2023-03-12T05:04:13.558Z,91729.88
2023-03-12T05:06:59.513Z,91735.44
2023-03-12T05:09:45.338Z,91736.38
2023-03-12T05:12:31.280Z,91728.97
2023-03-12T05:15:17.138Z,91732.75
2023-03-12T05:18:02.982Z,91727.50
2023-03-12T05:20:48.712Z,91729.22
2023-03-12T05:23:34.636Z,91732.06
2023-03-12T05:26:20.511Z,91741.44
2023-03-12T05:29:06.379Z,91744.31
2023-03-12T05:31:52.720Z,91741.56
2023-03-12T05:34:38.671Z,91741.44
2023-03-12T05:37:24.465Z,91747.56
2023-03-12T05:40:10.463Z,91732.94
2023-03-12T05:42:56.323Z,91733.66
2023-03-12T05:45:42.193Z,91746.53
2023-03-12T05:48:28.221Z,91743.09
2023-03-12T05:51:14.086Z,91737.81
2023-03-12T05:53:59.798Z,91742.66
2023-03-12T05:56:45.809Z,91747.50
2023-03-12T05:59:31.510Z,91744.22
2023-03-12T06:02:17.532Z,91746.94
2023-03-12T06:05:03.543Z,91745.72
2023-03-12T06:07:49.439Z,91751.31
2023-03-12T06:10:35.247Z,91759.00
2023-03-12T06:13:21.117Z,91765.22
2023-03-12T06:16:06.893Z,91760.75
2023-03-12T06:18:52.770Z,91765.34
2023-03-12T06:21:38.540Z,91769.78
2023-03-12T06:24:24.386Z,91776.00
2023-03-12T06:27:10.371Z,91782.19
2023-03-12T06:29:56.272Z,91783.06
2023-03-12T06:32:42.166Z,91785.16
2023-03-12T06:35:28.195Z,91780.31
2023-03-12T06:38:14.303Z,91787.56
2023-03-12T06:41:00.306Z,91795.50
2023-03-12T06:43:46.125Z,91785.94
2023-03-12T06:46:32.003Z,91795.03
2023-03-12T06:49:17.989Z,91794.41
2023-03-12T06:52:03.907Z,91797.19
2023-03-12T06:54:49.767Z,91799.44
2023-03-12T06:57:35.521Z,91808.44
2023-03-12T07:00:21.315Z,91813.09
2023-03-12T07:03:07.235Z,91806.41
2023-03-12T07:05:53.218Z,91809.19
2023-03-12T07:08:39.184Z,91809.78
2023-03-12T07:11:25.046Z,91825.13
2023-03-12T07:14:10.893Z,91830.13
2023-03-12T07:16:56.864Z,91825.25
2023-03-12T07:19:42.672Z,91836.25
2023-03-12T07:22:28.495Z,91837.50
2023-03-12T07:25:14.369Z,91838.84
2023-03-12T07:28:00.287Z,91838.56
2023-03-12T07:30:46.086Z,91846.09
2023-03-12T07:33:31.932Z,91841.91
2023-03-12T07:36:18.205Z,91854.84
2023-03-12T07:39:04.486Z,91851.41
2023-03-12T07:41:50.472Z,91853.72
2023-03-12T07:44:36.725Z,91857.84
2023-03-12T07:47:24.461Z,91857.47
2023-03-12T07:50:10.484Z,91864.06
2023-03-12T07:52:56.348Z,91860.38
2023-03-12T07:55:42.342Z,91855.56
2023-03-12T07:58:28.264Z,91856.72
2023-03-12T08:01:14.230Z,91860.56
2023-03-12T08:04:00.026Z,91858.78
2023-03-12T08:06:46.050Z,91874.03
2023-03-12T08:09:31.926Z,91873.59
2023-03-12T08:12:17.947Z,91873.78
2023-03-12T08:15:04.057Z,91874.09
2023-03-12T08:17:49.993Z,91883.59
2023-03-12T08:20:37.917Z,91886.91
2023-03-12T08:23:23.749Z,91879.66
2023-03-12T08:26:09.591Z,91888.53
2023-03-12T08:28:55.349Z,91894.50
2023-03-12T08:31:53.801Z,91886.19
2023-03-12T08:34:47.391Z,91904.00
2023-03-12T08:37:33.118Z,91897.28
2023-03-12T08:40:19.110Z,91903.19
2023-03-12T08:43:04.971Z,91919.94
2023-03-12T08:45:50.804Z,91918.38
2023-03-12T08:48:36.870Z,91925.25
2023-03-12T08:51:22.697Z,91920.13
2023-03-12T08:54:08.590Z,91923.03
2023-03-12T08:56:54.470Z,91916.28
2023-03-12T08:59:40.333Z,91920.78
2023-03-12T09:02:26.204Z,91926.03
2023-03-12T09:05:12.106Z,91928.56
2023-03-12T09:07:57.942Z,91931.19
2023-03-12T09:10:43.798Z,91936.59
2023-03-12T09:13:40.695Z,91946.34
2023-03-12T09:16:35.749Z,91956.63
2023-03-12T09:19:21.663Z,91958.19
2023-03-12T09:22:07.413Z,91950.69
2023-03-12T09:24:53.268Z,91952.03
2023-03-12T09:27:39.149Z,91954.47
2023-03-12T09:30:24.979Z,91953.75
2023-03-12T09:33:10.971Z,91974.91
2023-03-12T09:35:56.896Z,91981.94
2023-03-12T09:38:42.819Z,91987.56
2023-03-12T09:41:28.527Z,91984.47
2023-03-12T09:44:14.417Z,91990.56
2023-03-12T09:47:00.408Z,91988.00
2023-03-12T09:49:46.263Z,91986.00
2023-03-12T09:52:32.192Z,91981.06
2023-03-12T09:55:18.027Z,91980.78
2023-03-12T09:58:03.815Z,91984.38
2023-03-12T10:00:49.767Z,91998.69
2023-03-12T10:03:35.549Z,92004.56
2023-03-12T10:06:21.481Z,92016.94
2023-03-12T10:09:07.588Z,92018.88
2023-03-12T10:11:53.554Z,92007.22
2023-03-12T10:14:39.354Z,92010.75
2023-03-12T10:17:25.263Z,92012.38
2023-03-12T10:20:11.010Z,92021.44
2023-03-12T10:22:56.965Z,92017.91
2023-03-12T10:25:42.885Z,92011.81
2023-03-12T10:28:28.694Z,92011.59
2023-03-12T10:31:14.684Z,92015.44
2023-03-12T10:34:00.595Z,92015.13
2023-03-12T10:36:46.512Z,92020.53
2023-03-12T10:39:32.468Z,92020.31
2023-03-12T10:42:18.321Z,92024.81
2023-03-12T10:45:04.273Z,92024.06
2023-03-12T10:47:50.293Z,92030.72
2023-03-12T10:50:36.291Z,92030.44
2023-03-12T10:53:22.345Z,92030.84
2023-03-12T10:56:08.281Z,92036.84
2023-03-12T10:58:54.258Z,92042.19
2023-03-12T11:01:40.197Z,92043.31
2023-03-12T11:04:28.708Z,92065.06
2023-03-12T11:07:16.076Z,92056.59
2023-03-12T11:10:02.051Z,92068.97
2023-03-12T11:12:47.939Z,92058.63
2023-03-12T11:15:34.007Z,92063.81
2023-03-12T11:18:19.963Z,92064.06
2023-03-12T11:21:05.845Z,92066.34
2023-03-12T11:23:51.763Z,92063.63
2023-03-12T11:26:37.658Z,92077.81
2023-03-12T11:29:23.650Z,92073.19
2023-03-12T11:32:09.616Z,92075.81
2023-03-12T11:34:55.490Z,92075.91
2023-03-12T11:37:41.369Z,92079.72
2023-03-12T11:40:27.367Z,92076.09
2023-03-12T11:43:13.195Z,92072.84
2023-03-12T11:45:59.274Z,92068.22
2023-03-12T11:48:45.223Z,92075.94
2023-03-12T11:51:31.463Z,92057.16
2023-03-12T11:54:17.394Z,92071.06
2023-03-12T11:57:03.208Z,92069.59
2023-03-12T11:59:49.043Z,92070.94
2023-03-12T12:02:35.027Z,92072.84
2023-03-12T12:05:20.845Z,92069.91
2023-03-12T12:08:06.703Z,92064.31
2023-03-12T12:10:52.600Z,92068.59
2023-03-12T12:13:38.463Z,92059.28
2023-03-12T12:16:24.475Z,92064.31
2023-03-12T12:19:10.344Z,92063.47
2023-03-12T12:21:56.268Z,92059.63
2023-03-12T12:24:42.301Z,92055.28
2023-03-12T12:27:28.122Z,92051.28
2023-03-12T12:30:13.956Z,92048.97
2023-03-12T12:32:59.897Z,92033.38
2023-03-12T12:35:45.806Z,92029.59
2023-03-12T12:38:31.828Z,92035.69
2023-03-12T12:41:17.557Z,92030.22
2023-03-12T12:44:03.491Z,92023.13
2023-03-12T12:46:49.312Z,92020.56
2023-03-12T12:49:35.134Z,92018.16
2023-03-12T12:52:21.026Z,92025.94
2023-03-12T12:55:06.851Z,92024.63
2023-03-12T12:57:52.706Z,92036.94
2023-03-12T13:00:38.622Z,92027.63
2023-03-12T13:03:24.481Z,92022.00
2023-03-12T13:06:10.269Z,92029.94
2023-03-12T13:08:56.050Z,92029.56
2023-03-12T13:11:41.986Z,92029.59
2023-03-12T13:14:27.877Z,92024.31
2023-03-12T13:17:13.678Z,92026.81
2023-03-12T13:20:01.760Z,92017.84
2023-03-12T13:22:48.009Z,92022.19
2023-03-12T13:25:33.865Z,92024.19
2023-03-12T13:28:19.647Z,92027.25
2023-03-12T13:31:05.582Z,92026.38
2023-03-12T13:33:51.392Z,92014.28
2023-03-12T13:36:37.399Z,92012.00
2023-03-12T13:39:23.348Z,92010.97
2023-03-12T13:42:09.168Z,92007.75
2023-03-12T13:44:54.999Z,92002.25
2023-03-12T13:47:40.806Z,92000.16
2023-03-12T13:50:26.713Z,91984.81
2023-03-12T13:53:12.528Z,91980.66
2023-03-12T13:55:58.427Z,91983.28
2023-03-12T13:58:44.195Z,91982.50
2023-03-12T14:01:30.051Z,91973.84
2023-03-12T14:04:15.986Z,91973.50
2023-03-12T14:07:02.278Z,91976.50
2023-03-12T14:09:48.127Z,91969.66
2023-03-12T14:12:34.011Z,91970.84
2023-03-12T14:15:19.960Z,91976.47
2023-03-12T14:18:05.861Z,91970.44
2023-03-12T14:20:51.842Z,91961.78
2023-03-12T14:23:37.717Z,91971.59
2023-03-12T14:26:25.526Z,91975.66
2023-03-12T14:29:11.548Z,91963.28
2023-03-12T14:31:57.707Z,91959.88
2023-03-12T14:34:43.773Z,91963.28
2023-03-12T14:37:29.617Z,91963.66
2023-03-12T14:40:15.576Z,91951.19
2023-03-12T14:43:03.515Z,91954.19
2023-03-12T14:45:49.414Z,91960.28
2023-03-12T14:48:35.311Z,91950.75
2023-03-12T14:51:23.952Z,91956.81
2023-03-12T14:54:10.167Z,91954.56
2023-03-12T14:56:56.086Z,91955.34
2023-03-12T14:59:43.967Z,91947.03
2023-03-12T15:02:29.903Z,91955.34
2023-03-12T15:05:15.822Z,91946.66
2023-03-12T15:08:01.984Z,91946.66
2023-03-12T15:10:47.742Z,91937.97
2023-03-12T15:13:33.622Z,91951.53
2023-03-12T15:16:19.527Z,91943.63
2023-03-12T15:19:05.429Z,91947.00
2023-03-12T15:21:53.334Z,91952.16
2023-03-12T15:24:39.218Z,91951.47
2023-03-12T15:27:25.002Z,91960.16
2023-03-12T15:30:10.993Z,91949.69
2023-03-12T15:32:56.764Z,91944.75
2023-03-12T15:35:42.746Z,91952.31
2023-03-12T15:38:29.107Z,91954.19
2023-03-12T15:41:14.971Z,91955.75
2023-03-12T15:44:00.993Z,91944.78
2023-03-12T15:46:48.516Z,91935.72
2023-03-12T15:49:34.482Z,91932.69
2023-03-12T15:52:20.582Z,91931.22
2023-03-12T15:55:06.486Z,91930.78
2023-03-12T15:57:52.381Z,91932.28
2023-03-12T16:00:38.561Z,91937.13
2023-03-12T16:03:24.397Z,91934.84
2023-03-12T16:06:10.285Z,91931.41
2023-03-12T16:08:56.253Z,91929.13
2023-03-12T16:11:42.172Z,91932.91
2023-03-12T16:14:28.118Z,91938.59
2023-03-12T16:17:14.081Z,91935.06
2023-03-12T16:19:59.862Z,91929.59
2023-03-12T16:22:45.846Z,91914.91
2023-03-12T16:25:31.690Z,91928.44
2023-03-12T16:28:19.631Z,91930.28
2023-03-12T16:31:05.449Z,91926.50
2023-03-12T16:33:51.261Z,91931.84
2023-03-12T16:36:37.194Z,91923.97
2023-03-12T16:39:23.089Z,91922.50
2023-03-12T16:42:08.848Z,91922.50
2023-03-12T16:44:54.957Z,91924.00
2023-03-12T16:47:41.393Z,91914.19
2023-03-12T16:50:27.282Z,91916.84
2023-03-12T16:53:13.390Z,91910.03
2023-03-12T16:56:01.267Z,91906.28
2023-03-12T16:58:47.176Z,91914.22
2023-03-12T17:01:33.135Z,91910.06
2023-03-12T17:04:19.310Z,91902.81
2023-03-12T17:07:05.379Z,91903.22
2023-03-12T17:09:51.344Z,91906.13
2023-03-12T17:12:37.195Z,91901.63
2023-03-12T17:15:23.025Z,91903.78
2023-03-12T17:18:08.863Z,91906.59
2023-03-12T17:20:54.784Z,91906.97
2023-03-12T17:23:40.883Z,91915.97
2023-03-12T17:26:26.911Z,91917.56
2023-03-12T17:29:12.833Z,91917.53
2023-03-12T17:31:58.835Z,91928.53
2023-03-12T17:34:44.677Z,91918.75
2023-03-12T17:37:30.620Z,91922.50
2023-03-12T17:40:16.510Z,91932.69
2023-03-12T17:43:02.399Z,91933.09
2023-03-12T17:45:48.303Z,91927.81
2023-03-12T17:48:34.227Z,91943.28
2023-03-12T17:51:20.247Z,91942.53
2023-03-12T17:54:06.078Z,91941.38
2023-03-12T17:56:51.962Z,91938.00
2023-03-12T17:59:37.962Z,91946.31
2023-03-12T18:02:23.818Z,91939.88
2023-03-12T18:05:09.793Z,91942.50
2023-03-12T18:07:56.156Z,91947.03
2023-03-12T18:10:42.180Z,91949.66
2023-03-12T18:13:28.226Z,91952.31
2023-03-12T18:16:14.299Z,91956.44
2023-03-12T18:19:00.565Z,91953.81
2023-03-12T18:21:46.538Z,91957.16
2023-03-12T18:24:32.420Z,91960.97
2023-03-12T18:27:18.266Z,91951.53
2023-03-12T18:30:04.255Z,91951.47
2023-03-12T18:32:50.185Z,91958.16
2023-03-12T18:35:36.090Z,91959.16
2023-03-12T18:38:21.951Z,91949.75
2023-03-12T18:41:07.995Z,91958.13
2023-03-12T18:43:53.857Z,91959.19
2023-03-12T18:46:39.913Z,91964.03
2023-03-12T18:49:25.823Z,91963.47
2023-03-12T18:52:11.764Z,91971.69
2023-03-12T18:54:57.620Z,91980.66
2023-03-12T18:57:43.596Z,91974.75
2023-03-12T19:00:29.459Z,91989.16
2023-03-12T19:03:15.584Z,91986.94
2023-03-12T19:06:01.653Z,91990.97
2023-03-12T19:08:47.513Z,91990.28
2023-03-12T19:11:33.533Z,91995.56
2023-03-12T19:14:19.592Z,91994.00
2023-03-12T19:17:05.301Z,91986.81
2023-03-12T19:19:51.159Z,91996.63
2023-03-12T19:22:37.132Z,91997.41
2023-03-12T19:25:23.485Z,91999.97
2023-03-12T19:28:09.487Z,91995.03
2023-03-12T19:30:55.287Z,92004.97
2023-03-12T19:33:41.203Z,91997.81
2023-03-12T19:36:27.066Z,92006.50
2023-03-12T19:39:21.032Z,92003.94
2023-03-12T19:42:07.890Z,91997.13
2023-03-12T19:44:53.826Z,92003.97
2023-03-12T19:47:39.873Z,92006.00
2023-03-12T19:50:25.632Z,92009.78
2023-03-12T19:53:11.457Z,92010.41
2023-03-12T19:55:57.259Z,92020.16
2023-03-12T19:58:43.219Z,92025.84
2023-03-12T20:01:29.133Z,92023.59
2023-03-12T20:04:14.861Z,92022.69
2023-03-12T20:07:00.799Z,92013.13
2023-03-12T20:09:46.796Z,92017.06
2023-03-12T20:12:32.545Z,92012.78
2023-03-12T20:15:18.469Z,92014.88
2023-03-12T20:18:04.369Z,92017.44
2023-03-12T20:20:50.183Z,92017.00
2023-03-12T20:23:36.165Z,92009.38
2023-03-12T20:26:21.978Z,92012.47
2023-03-12T20:29:07.966Z,92013.84
2023-03-12T20:31:53.842Z,92017.16
2023-03-12T20:34:39.918Z,92022.00
2023-03-12T20:37:25.836Z,92014.81
2023-03-12T20:40:11.603Z,92012.72
2023-03-12T20:42:57.634Z,92010.53
2023-03-12T20:45:43.682Z,92006.59
2023-03-12T20:48:29.625Z,92005.75
2023-03-12T20:51:15.519Z,91988.63
2023-03-12T20:54:01.383Z,91992.38
2023-03-12T20:56:47.159Z,91992.34
2023-03-12T20:59:33.086Z,91989.88
2023-03-12T21:02:18.941Z,91973.63
2023-03-12T21:05:05.019Z,91978.06
2023-03-12T21:07:50.915Z,91978.78
2023-03-12T21:10:36.743Z,91980.16
2023-03-12T21:13:22.744Z,91977.66
2023-03-12T21:16:08.579Z,91979.28
2023-03-12T21:18:54.405Z,91979.59
2023-03-12T21:21:40.322Z,91985.56
2023-03-12T21:24:26.169Z,91976.63
2023-03-12T21:27:12.078Z,91981.09
2023-03-12T21:29:58.025Z,91974.63
2023-03-12T21:32:43.836Z,91975.47
2023-03-12T21:35:29.832Z,91970.44
2023-03-12T21:38:15.758Z,91966.44
2023-03-12T21:41:01.830Z,91965.31
2023-03-12T21:43:47.962Z,91958.16
2023-03-12T21:46:33.905Z,91974.97
2023-03-12T21:49:19.892Z,91965.63
2023-03-12T21:52:05.713Z,91971.94
2023-03-12T21:54:51.558Z,91974.06
2023-03-12T21:57:37.388Z,91970.03
2023-03-12T22:00:23.183Z,91965.56
2023-03-12T22:03:09.070Z,91964.56
2023-03-12T22:05:55.016Z,91956.00
2023-03-12T22:08:40.831Z,91958.41
2023-03-12T22:11:26.637Z,91961.72
2023-03-12T22:14:12.509Z,91956.28
2023-03-12T22:16:58.334Z,91956.63
2023-03-12T22:19:44.313Z,91962.78
2023-03-12T22:22:30.146Z,91962.63
2023-03-12T22:25:15.981Z,91963.41
2023-03-12T22:28:01.839Z,91947.41
2023-03-12T22:30:47.758Z,91957.50
2023-03-12T22:33:33.577Z,91961.47
2023-03-12T22:36:20.743Z,91960.16
2023-03-12T22:39:06.814Z,91959.44
2023-03-12T22:41:52.611Z,91958.84
2023-03-12T22:44:38.345Z,91947.28
2023-03-12T22:47:24.465Z,91948.59
2023-03-12T22:50:10.286Z,91953.94
2023-03-12T22:52:56.192Z,91951.13
2023-03-12T22:55:42.127Z,91954.06
2023-03-12T22:58:28.041Z,91944.97
2023-03-12T23:01:13.804Z,91943.69
2023-03-12T23:03:59.875Z,91948.53
2023-03-12T23:06:45.982Z,91945.94
2023-03-12T23:09:31.966Z,91947.38
2023-03-12T23:12:17.822Z,91928.84
2023-03-12T23:15:03.792Z,91926.78
2023-03-12T23:17:49.804Z,91931.16
2023-03-12T23:20:37.584Z,91928.41
2023-03-12T23:23:23.474Z,91926.72
2023-03-12T23:26:09.419Z,91917.00
2023-03-12T23:28:55.291Z,91910.00
2023-03-12T23:31:41.278Z,91916.44
2023-03-12T23:34:27.210Z,91921.09
2023-03-12T23:37:13.036Z,91911.63
2023-03-12T23:39:58.794Z,91911.00
2023-03-12T23:42:44.702Z,91912.56
2023-03-12T23:45:30.653Z,91907.09
2023-03-12T23:48:16.554Z,91904.94
2023-03-12T23:51:02.442Z,91902.06
2023-03-12T23:53:48.434Z,91900.84
2023-03-12T23:56:34.509Z,91894.84
2023-03-12T23:59:20.375Z,91899.34
